KSOW/SOW METAR and TAF weather

Enter ICAO airport designator
Station Type Date Time Source
KSOW METAR 2022/08/16 19:15 UTC NOAA

KSOW 161915Z AUTO 01005KT 10SM VCTS CLR 26/15 A3023 RMK AO2 LTG DSNT E AND SE


Station Type Date Time Source
KSOW Decoded METAR 2022/08/16 19:15 UTC NOAA

Show Low, Show Low Regional Airport, AZ, United States (KSOW) 34-15-55N 110-00-20W
Aug 16, 2022 - 03:15 PM EDT / 2022.08.16 1915 UTC
Wind: from the N (010 degrees) at 6 MPH (5 KT):0
Visibility: 10 mile(s):0
Sky conditions: clear
Weather: thunder in the vicinity; Lightning observed
Temperature: 78 F (26 C)
Dew Point: 59 F (15 C)
Relative Humidity: 50%
Pressure (altimeter): 30.23 in. Hg (1023 hPa)
ob: KSOW 161915Z AUTO 01005KT 10SM VCTS CLR 26/15 A3023 RMK AO2 LTG DSNT E AND SE
cycle: 19

Station Type Date Time Source
KSOW TAF UTC NOAA

Error!

Example: see airport list